Time;durP1;ratioP1;P1;durP2;ratioP2;P2;SDS_P1;SDS_P2;PMS_P1;PMS_P2;Temp;Humidity;BMP_temperature;BMP_pressure;BME280_temperature;BME280_humidity;BME280_pressure;Samples;Min_cycle;Max_cycle;Signal;HPM_P1;HPM_P2
2023/12/12 00:01:37;;;;;;;0.60;0.60;;;;;;;;;;6212767;23;20243;-88
2023/12/12 00:04:05;;;;;;;0.83;0.83;;;;;;;;;;6212384;23;20173;-88
2023/12/12 00:06:34;;;;;;;0.60;0.60;;;;;;;;;;6212127;23;20172;-88
2023/12/12 00:09:03;;;;;;;3.60;2.30;;;;;;;;;;6213077;23;20181;-88
2023/12/12 00:11:31;;;;;;;0.60;0.60;;;;;;;;;;6213158;23;20174;-88
2023/12/12 00:14:00;;;;;;;0.60;0.60;;;;;;;;;;6212829;23;20181;-88
2023/12/12 00:16:30;;;;;;;0.60;0.60;;;;;;;;;;6212110;23;20223;-88
2023/12/12 00:18:58;;;;;;;0.50;0.50;;;;;;;;;;6212576;23;20178;-88
2023/12/12 00:21:28;;;;;;;0.53;0.53;;;;;;;;;;6212799;23;20174;-89
2023/12/12 00:23:59;;;;;;;0.60;0.60;;;;;;;;;;6213676;23;20194;-89
2023/12/12 00:26:28;;;;;;;0.60;0.60;;;;;;;;;;6211911;23;20177;-86
2023/12/12 00:28:56;;;;;;;0.60;0.60;;;;;;;;;;6163012;23;1143876;-86
2023/12/12 00:31:25;;;;;;;0.60;0.60;;;;;;;;;;6215489;23;20188;-86
2023/12/12 00:33:55;;;;;;;0.50;0.50;;;;;;;;;;6215730;23;20250;-86
2023/12/12 00:36:23;;;;;;;0.60;0.60;;;;;;;;;;6215182;23;20250;-86
2023/12/12 00:38:52;;;;;;;4.80;2.87;;;;;;;;;;6215846;23;20242;-86
2023/12/12 00:41:20;;;;;;;1.33;1.23;;;;;;;;;;6215448;23;20174;-86
2023/12/12 00:43:49;;;;;;;5.17;1.73;;;;;;;;;;6215572;23;20189;-86
2023/12/12 00:46:17;;;;;;;8.10;3.00;;;;;;;;;;6214961;23;20256;-86
2023/12/12 00:48:46;;;;;;;0.70;0.70;;;;;;;;;;6215691;23;20172;-86
2023/12/12 00:51:16;;;;;;;4.13;1.23;;;;;;;;;;6215122;23;20181;-86
2023/12/12 00:53:44;;;;;;;0.73;0.73;;;;;;;;;;6215355;23;20182;-86
2023/12/12 00:56:13;;;;;;;0.60;0.60;;;;;;;;;;6215434;23;20207;-86
2023/12/12 00:58:41;;;;;;;0.60;0.60;;;;;;;;;;6215357;23;20203;-86
2023/12/12 01:01:13;;;;;;;0.80;0.80;;;;;;;;;;6215557;23;20172;-86
2023/12/12 01:03:42;;;;;;;2.17;2.00;;;;;;;;;;6215830;23;20212;-86
2023/12/12 01:06:11;;;;;;;0.60;0.60;;;;;;;;;;6215125;23;20233;-86
2023/12/12 01:08:41;;;;;;;4.57;1.30;;;;;;;;;;6215484;23;20178;-86
2023/12/12 01:11:10;;;;;;;0.87;0.87;;;;;;;;;;6215572;23;20251;-86
2023/12/12 01:13:38;;;;;;;0.60;0.60;;;;;;;;;;6215406;23;20237;-87
2023/12/12 01:16:07;;;;;;;1.70;1.70;;;;;;;;;;6215004;23;20188;-86
2023/12/12 01:18:36;;;;;;;1.07;1.07;;;;;;;;;;6215193;23;20211;-86
2023/12/12 01:21:05;;;;;;;0.60;0.60;;;;;;;;;;6215109;23;20231;-87
2023/12/12 01:23:48;;;;;;;0.80;0.80;;;;;;;;;;6215187;23;20186;-86
2023/12/12 01:26:19;;;;;;;0.60;0.60;;;;;;;;;;6214810;23;20191;-86
2023/12/12 01:28:48;;;;;;;0.70;0.70;;;;;;;;;;6215416;23;20169;-86
2023/12/12 01:31:16;;;;;;;1.37;0.97;;;;;;;;;;6215511;23;20189;-86
2023/12/12 01:33:45;;;;;;;0.70;0.70;;;;;;;;;;6215345;23;20172;-86
2023/12/12 01:36:14;;;;;;;0.60;0.60;;;;;;;;;;6214511;23;20205;-86
2023/12/12 01:38:42;;;;;;;10.70;5.93;;;;;;;;;;6215079;23;20217;-86
2023/12/12 01:41:11;;;;;;;4.53;1.97;;;;;;;;;;6214993;23;20183;-86
2023/12/12 01:43:41;;;;;;;1.37;1.37;;;;;;;;;;6215510;23;20227;-86
2023/12/12 01:46:10;;;;;;;1.03;0.93;;;;;;;;;;6215036;23;20194;-86
2023/12/12 01:48:39;;;;;;;1.70;0.90;;;;;;;;;;6214998;23;20170;-86
2023/12/12 01:51:07;;;;;;;1.17;1.17;;;;;;;;;;6214591;23;20179;-86
2023/12/12 01:53:38;;;;;;;0.60;0.60;;;;;;;;;;6214842;23;20180;-86
2023/12/12 01:56:08;;;;;;;0.60;0.60;;;;;;;;;;6214763;23;20180;-86
2023/12/12 01:58:37;;;;;;;0.60;0.60;;;;;;;;;;6214965;23;20192;-86
2023/12/12 02:01:07;;;;;;;0.60;0.60;;;;;;;;;;6214763;23;20173;-86
2023/12/12 02:03:37;;;;;;;0.70;0.70;;;;;;;;;;6215186;23;20235;-86
2023/12/12 02:06:07;;;;;;;0.60;0.60;;;;;;;;;;6215029;23;20180;-86
2023/12/12 02:08:35;;;;;;;0.70;0.70;;;;;;;;;;6215006;23;20200;-86
2023/12/12 02:11:04;;;;;;;0.60;0.60;;;;;;;;;;6215200;23;20169;-86
2023/12/12 02:13:32;;;;;;;0.60;0.60;;;;;;;;;;6215881;23;20181;-86
2023/12/12 02:26:10;;;;;;;0.60;0.60;;;;;;;;;;6214075;23;20161;-86
2023/12/12 02:28:38;;;;;;;0.70;0.70;;;;;;;;;;6214710;23;20229;-86
2023/12/12 02:31:07;;;;;;;0.80;0.80;;;;;;;;;;6214913;23;20208;-87
2023/12/12 02:33:35;;;;;;;0.60;0.60;;;;;;;;;;6215184;23;20181;-86
2023/12/12 02:36:04;;;;;;;0.63;0.63;;;;;;;;;;6213972;23;20180;-86
2023/12/12 02:38:33;;;;;;;10.13;3.83;;;;;;;;;;6214079;23;20198;-86
2023/12/12 02:41:01;;;;;;;11.87;4.03;;;;;;;;;;6214821;23;20184;-86
2023/12/12 02:43:31;;;;;;;7.03;4.13;;;;;;;;;;6215039;23;20250;-86
2023/12/12 02:46:00;;;;;;;14.60;5.07;;;;;;;;;;6213923;23;20178;-86
2023/12/12 02:48:28;;;;;;;9.23;5.57;;;;;;;;;;6214728;23;20175;-86
2023/12/12 02:50:57;;;;;;;7.47;4.47;;;;;;;;;;6214643;23;20168;-86
2023/12/12 02:53:26;;;;;;;10.40;4.63;;;;;;;;;;6214284;23;20177;-86
2023/12/12 02:55:54;;;;;;;11.10;4.27;;;;;;;;;;6214154;23;20241;-86
2023/12/12 02:58:23;;;;;;;14.23;4.43;;;;;;;;;;6213900;23;20190;-86
2023/12/12 03:00:53;;;;;;;9.57;4.70;;;;;;;;;;6214487;23;20175;-86
2023/12/12 03:03:22;;;;;;;9.33;4.10;;;;;;;;;;6214392;23;20178;-86
2023/12/12 03:05:50;;;;;;;9.67;5.50;;;;;;;;;;6213575;23;20170;-86
2023/12/12 03:08:19;;;;;;;13.17;6.10;;;;;;;;;;6213662;23;20170;-86
2023/12/12 03:10:48;;;;;;;14.53;6.13;;;;;;;;;;6214264;23;20195;-86
2023/12/12 03:13:16;;;;;;;11.23;6.97;;;;;;;;;;6214591;23;20178;-86
2023/12/12 03:15:45;;;;;;;12.00;5.23;;;;;;;;;;6213782;23;20174;-85
2023/12/12 03:18:15;;;;;;;6.50;3.83;;;;;;;;;;6213872;23;20190;-86
2023/12/12 03:20:43;;;;;;;9.27;4.23;;;;;;;;;;6214636;23;20193;-86
2023/12/12 03:23:12;;;;;;;3.70;2.73;;;;;;;;;;6214561;23;20204;-86
2023/12/12 03:25:40;;;;;;;4.07;2.33;;;;;;;;;;6214505;23;20177;-86
2023/12/12 03:28:09;;;;;;;0.70;0.70;;;;;;;;;;6213931;23;20213;-86
2023/12/12 03:30:37;;;;;;;0.70;0.70;;;;;;;;;;6214480;23;20206;-86
2023/12/12 03:33:06;;;;;;;5.20;2.57;;;;;;;;;;6213933;23;20213;-86
2023/12/12 03:35:36;;;;;;;7.97;3.07;;;;;;;;;;6213533;23;20265;-86
2023/12/12 03:38:04;;;;;;;6.60;3.40;;;;;;;;;;6213480;23;20184;-86
2023/12/12 03:40:33;;;;;;;7.03;3.33;;;;;;;;;;6213928;23;20205;-86
2023/12/12 03:43:02;;;;;;;3.17;2.57;;;;;;;;;;6213834;23;20176;-86
2023/12/12 03:45:30;;;;;;;6.60;2.30;;;;;;;;;;6213657;23;20175;-86
2023/12/12 03:47:59;;;;;;;8.30;3.57;;;;;;;;;;6213839;23;20182;-86
2023/12/12 03:50:27;;;;;;;6.50;3.17;;;;;;;;;;6213870;23;20173;-86
2023/12/12 03:52:57;;;;;;;2.07;1.40;;;;;;;;;;6213547;23;20202;-86
2023/12/12 03:55:26;;;;;;;1.17;1.17;;;;;;;;;;6213817;23;20264;-85
2023/12/12 03:57:54;;;;;;;0.63;0.63;;;;;;;;;;6213351;23;20166;-86
2023/12/12 04:00:23;;;;;;;0.70;0.70;;;;;;;;;;6213484;23;20182;-86
2023/12/12 04:02:51;;;;;;;1.27;1.20;;;;;;;;;;6214045;23;20170;-86
2023/12/12 04:05:20;;;;;;;9.30;5.77;;;;;;;;;;6213481;23;20224;-86
2023/12/12 04:07:48;;;;;;;7.83;4.77;;;;;;;;;;6213638;23;20174;-86
2023/12/12 04:10:19;;;;;;;3.93;2.60;;;;;;;;;;6213983;23;20174;-86
2023/12/12 04:12:48;;;;;;;8.13;4.20;;;;;;;;;;6213777;23;20178;-86
2023/12/12 04:15:16;;;;;;;13.77;6.57;;;;;;;;;;6213644;23;20246;-86
2023/12/12 04:17:45;;;;;;;6.73;4.63;;;;;;;;;;6213230;23;20185;-86
2023/12/12 04:20:13;;;;;;;7.43;4.33;;;;;;;;;;6213640;23;20190;-86
2023/12/12 04:22:42;;;;;;;5.33;3.53;;;;;;;;;;6213038;23;20193;-86
2023/12/12 04:25:12;;;;;;;8.53;3.87;;;;;;;;;;6213114;23;20217;-86
2023/12/12 04:27:42;;;;;;;22.60;10.47;;;;;;;;;;6213043;23;20174;-86
2023/12/12 04:30:11;;;;;;;12.43;9.20;;;;;;;;;;6213813;23;20202;-86
2023/12/12 04:32:39;;;;;;;26.33;11.77;;;;;;;;;;6213137;23;20181;-86
2023/12/12 04:35:09;;;;;;;27.07;14.73;;;;;;;;;;6213568;23;20225;-86
2023/12/12 04:37:37;;;;;;;16.90;12.33;;;;;;;;;;6212839;23;20185;-86
2023/12/12 04:40:07;;;;;;;8.83;7.20;;;;;;;;;;6213935;23;20194;-86
2023/12/12 04:42:36;;;;;;;18.57;11.03;;;;;;;;;;6213349;23;20265;-86
2023/12/12 04:45:08;;;;;;;4.63;4.23;;;;;;;;;;6213225;23;20245;-86
2023/12/12 04:47:36;;;;;;;9.10;6.23;;;;;;;;;;6212721;23;20170;-86
2023/12/12 04:50:06;;;;;;;13.13;10.10;;;;;;;;;;6213984;23;20279;-86
2023/12/12 04:52:34;;;;;;;15.03;8.67;;;;;;;;;;6213700;23;20177;-86
2023/12/12 04:55:03;;;;;;;16.60;11.13;;;;;;;;;;6213493;23;20198;-86
2023/12/12 04:57:32;;;;;;;15.90;11.60;;;;;;;;;;6212785;23;20209;-86
2023/12/12 05:00:02;;;;;;;7.83;6.17;;;;;;;;;;6213636;23;20196;-86
2023/12/12 05:02:35;;;;;;;15.97;8.07;;;;;;;;;;6212868;23;20175;-86
2023/12/12 05:05:03;;;;;;;13.00;10.57;;;;;;;;;;6212935;23;20170;-86
2023/12/12 05:07:31;;;;;;;15.83;10.17;;;;;;;;;;6212930;23;20208;-87
2023/12/12 05:10:01;;;;;;;4.77;4.30;;;;;;;;;;6213922;23;20177;-86
2023/12/12 05:12:29;;;;;;;12.73;9.57;;;;;;;;;;6213316;23;20171;-86
2023/12/12 05:15:02;;;;;;;16.10;8.77;;;;;;;;;;6214001;23;20178;-86
2023/12/12 05:17:31;;;;;;;11.23;7.60;;;;;;;;;;6214962;23;20175;-86
2023/12/12 05:20:01;;;;;;;15.00;9.03;;;;;;;;;;6215374;23;20200;-86
2023/12/12 05:22:31;;;;;;;7.60;5.00;;;;;;;;;;6215006;23;20202;-86
2023/12/12 05:24:59;;;;;;;12.40;9.13;;;;;;;;;;6216045;23;20187;-86
2023/12/12 05:27:28;;;;;;;3.10;2.80;;;;;;;;;;6215333;23;20181;-86
2023/12/12 05:29:57;;;;;;;10.47;7.77;;;;;;;;;;6215394;23;20202;-86
2023/12/12 05:32:26;;;;;;;14.57;10.20;;;;;;;;;;6214851;23;20170;-86
2023/12/12 05:34:54;;;;;;;9.83;5.47;;;;;;;;;;6215124;23;20252;-86
2023/12/12 05:37:24;;;;;;;14.90;7.07;;;;;;;;;;6214899;23;20170;-86
2023/12/12 05:39:52;;;;;;;7.10;5.87;;;;;;;;;;6215701;23;20230;-87
2023/12/12 05:42:21;;;;;;;19.63;9.13;;;;;;;;;;6215556;23;20179;-86
2023/12/12 05:44:49;;;;;;;7.43;5.83;;;;;;;;;;6215408;23;20205;-86
2023/12/12 05:47:18;;;;;;;0.60;0.60;;;;;;;;;;6214669;23;20270;-86
2023/12/12 05:49:46;;;;;;;21.83;6.80;;;;;;;;;;6215328;23;20180;-86
2023/12/12 05:52:15;;;;;;;8.97;5.83;;;;;;;;;;6214989;23;20172;-86
2023/12/12 05:54:46;;;;;;;11.03;5.57;;;;;;;;;;6215196;23;20195;-86
2023/12/12 05:57:14;;;;;;;13.73;9.23;;;;;;;;;;6214584;23;20166;-86
2023/12/12 05:59:43;;;;;;;2.37;2.27;;;;;;;;;;6215042;23;20253;-86
2023/12/12 06:02:11;;;;;;;4.83;4.40;;;;;;;;;;6215451;23;20180;-86
2023/12/12 06:04:40;;;;;;;2.87;2.63;;;;;;;;;;6215391;23;20185;-87
2023/12/12 06:07:09;;;;;;;11.43;2.40;;;;;;;;;;6213789;23;20225;-86
2023/12/12 06:09:37;;;;;;;6.23;3.67;;;;;;;;;;6214625;23;20257;-87
2023/12/12 06:12:08;;;;;;;2.27;2.13;;;;;;;;;;6214870;23;20166;-86
2023/12/12 06:14:36;;;;;;;0.70;0.70;;;;;;;;;;6214558;23;20170;-86
2023/12/12 06:17:05;;;;;;;10.50;5.80;;;;;;;;;;6214046;23;20179;-86
2023/12/12 06:19:34;;;;;;;15.57;10.60;;;;;;;;;;6214693;23;20252;-86
2023/12/12 06:22:03;;;;;;;9.63;7.77;;;;;;;;;;6214330;23;20198;-86
2023/12/12 06:24:35;;;;;;;9.17;5.63;;;;;;;;;;6214609;23;20170;-86
2023/12/12 06:27:04;;;;;;;9.37;6.43;;;;;;;;;;6213919;23;20182;-86
2023/12/12 06:29:34;;;;;;;13.73;9.17;;;;;;;;;;6214852;23;20217;-85
2023/12/12 06:32:02;;;;;;;28.47;16.77;;;;;;;;;;6215091;23;20177;-85
2023/12/12 06:34:32;;;;;;;35.43;20.13;;;;;;;;;;6214588;23;20236;-86
2023/12/12 06:37:00;;;;;;;28.77;17.90;;;;;;;;;;6215045;23;20174;-86
2023/12/12 06:39:29;;;;;;;37.40;19.77;;;;;;;;;;6214616;23;20166;-85
2023/12/12 06:41:58;;;;;;;26.57;17.17;;;;;;;;;;6214842;23;20194;-85
2023/12/12 06:44:27;;;;;;;36.57;25.53;;;;;;;;;;6214762;23;20184;-85
2023/12/12 06:46:58;;;;;;;37.07;22.57;;;;;;;;;;6214490;23;20181;-85
2023/12/12 06:49:27;;;;;;;55.43;29.93;;;;;;;;;;6214858;23;20240;-83
2023/12/12 06:51:56;;;;;;;34.80;21.53;;;;;;;;;;6214649;23;20162;-84
2023/12/12 06:54:25;;;;;;;24.07;10.73;;;;;;;;;;6214831;23;20189;-84
2023/12/12 06:56:53;;;;;;;30.77;14.40;;;;;;;;;;6214292;23;20241;-84
2023/12/12 06:59:22;;;;;;;49.33;25.27;;;;;;;;;;6214377;23;20179;-84
2023/12/12 07:01:52;;;;;;;16.70;11.63;;;;;;;;;;6214190;23;20201;-84
2023/12/12 07:04:22;;;;;;;36.50;20.73;;;;;;;;;;6215085;23;20266;-84
2023/12/12 07:06:51;;;;;;;58.67;30.70;;;;;;;;;;6214423;23;20178;-84
2023/12/12 07:09:20;;;;;;;14.77;8.57;;;;;;;;;;6214986;23;20242;-82
2023/12/12 07:11:48;;;;;;;7.33;6.83;;;;;;;;;;6214497;23;20174;-83
2023/12/12 07:14:34;;;;;;;6.47;5.57;;;;;;;;;;6214380;23;20178;-84
2023/12/12 07:17:02;;;;;;;5.80;4.70;;;;;;;;;;6213592;23;20244;-83
2023/12/12 07:19:32;;;;;;;21.40;10.63;;;;;;;;;;6213732;23;20170;-84
2023/12/12 07:22:01;;;;;;;1.37;1.37;;;;;;;;;;6214165;23;20195;-84
2023/12/12 07:24:30;;;;;;;6.43;5.03;;;;;;;;;;6215172;23;20179;-84
2023/12/12 07:26:58;;;;;;;6.77;4.10;;;;;;;;;;6214193;23;20411;-83
2023/12/12 07:29:27;;;;;;;1.87;1.87;;;;;;;;;;6214255;23;20202;-84
2023/12/12 07:31:56;;;;;;;3.00;2.90;;;;;;;;;;6214076;23;20216;-84
2023/12/12 07:34:25;;;;;;;17.10;7.37;;;;;;;;;;6214237;23;20170;-84
2023/12/12 07:36:55;;;;;;;32.13;16.47;;;;;;;;;;6214271;23;20236;-84
2023/12/12 07:39:23;;;;;;;30.43;15.07;;;;;;;;;;6216281;23;20232;-84
2023/12/12 07:41:52;;;;;;;3.20;2.50;;;;;;;;;;6214266;23;20253;-83
2023/12/12 07:44:21;;;;;;;4.80;4.50;;;;;;;;;;6215303;23;20179;-84
2023/12/12 07:46:50;;;;;;;3.73;2.67;;;;;;;;;;6214342;23;20179;-84
2023/12/12 07:49:18;;;;;;;3.90;2.83;;;;;;;;;;6214878;23;20175;-84
2023/12/12 07:51:49;;;;;;;3.00;2.90;;;;;;;;;;6214728;23;20189;-85
2023/12/12 07:54:20;;;;;;;0.97;0.97;;;;;;;;;;6215735;23;20213;-84
2023/12/12 07:56:48;;;;;;;17.30;5.93;;;;;;;;;;6213656;23;20179;-85
2023/12/12 07:59:17;;;;;;;4.00;3.70;;;;;;;;;;6215107;23;20194;-83
2023/12/12 08:01:49;;;;;;;2.30;2.20;;;;;;;;;;6214754;23;20195;-84
2023/12/12 08:04:18;;;;;;;4.83;4.03;;;;;;;;;;6213891;23;20270;-84
2023/12/12 08:06:47;;;;;;;0.90;0.90;;;;;;;;;;6214030;23;20195;-84
2023/12/12 08:09:15;;;;;;;3.77;3.57;;;;;;;;;;6213756;23;20176;-84
2023/12/12 08:11:45;;;;;;;10.23;6.17;;;;;;;;;;6214294;23;20174;-84
2023/12/12 08:14:14;;;;;;;15.37;9.97;;;;;;;;;;6214054;23;20321;-84
2023/12/12 08:16:43;;;;;;;3.97;2.23;;;;;;;;;;6213132;23;20182;-84
2023/12/12 08:19:13;;;;;;;10.57;4.97;;;;;;;;;;6213669;23;20190;-84
2023/12/12 08:21:42;;;;;;;1.83;1.83;;;;;;;;;;6213717;23;20227;-83
2023/12/12 08:24:14;;;;;;;11.43;10.07;;;;;;;;;;6213715;23;20263;-84
2023/12/12 08:26:43;;;;;;;26.73;6.67;;;;;;;;;;6213428;23;20178;-83
2023/12/12 08:29:13;;;;;;;2.37;2.27;;;;;;;;;;6213405;23;20180;-83
2023/12/12 08:31:43;;;;;;;19.30;9.10;;;;;;;;;;6213445;23;20171;-84
2023/12/12 08:34:12;;;;;;;14.33;8.53;;;;;;;;;;6213955;23;20176;-84
2023/12/12 08:36:40;;;;;;;14.20;4.50;;;;;;;;;;6213091;23;20182;-84
2023/12/12 08:39:09;;;;;;;20.53;7.23;;;;;;;;;;6213606;23;20246;-84
2023/12/12 08:41:39;;;;;;;10.00;3.37;;;;;;;;;;6213851;23;20234;-84
2023/12/12 08:44:08;;;;;;;22.97;8.23;;;;;;;;;;6214306;23;20179;-84
2023/12/12 08:46:38;;;;;;;44.87;18.83;;;;;;;;;;6212827;23;20199;-84
2023/12/12 08:49:07;;;;;;;39.93;21.23;;;;;;;;;;6213208;23;20182;-84
2023/12/12 08:51:36;;;;;;;26.13;15.07;;;;;;;;;;6214705;23;20225;-84
2023/12/12 08:54:05;;;;;;;2.77;1.87;;;;;;;;;;6215918;23;20179;-83
2023/12/12 08:56:36;;;;;;;1.13;1.13;;;;;;;;;;6214834;23;20176;-84
2023/12/12 08:59:05;;;;;;;0.70;0.70;;;;;;;;;;6215343;23;20222;-84
2023/12/12 09:01:38;;;;;;;6.17;5.57;;;;;;;;;;6216280;23;20195;-85
2023/12/12 09:04:13;;;;;;;3.20;2.70;;;;;;;;;;6213400;23;20179;-84
2023/12/12 09:06:42;;;;;;;1.70;1.60;;;;;;;;;;6215978;23;20176;-84
2023/12/12 09:09:14;;;;;;;7.30;4.87;;;;;;;;;;6215768;23;20208;-83
2023/12/12 09:11:46;;;;;;;11.20;6.53;;;;;;;;;;6215056;23;20180;-84
2023/12/12 09:14:15;;;;;;;4.03;3.07;;;;;;;;;;6216193;23;20171;-84
2023/12/12 09:16:50;;;;;;;1.80;1.57;;;;;;;;;;6215256;23;20180;-83
2023/12/12 09:19:20;;;;;;;1.87;1.87;;;;;;;;;;6214491;23;20175;-84
2023/12/12 09:21:51;;;;;;;3.90;3.63;;;;;;;;;;6214002;23;20193;-84
2023/12/12 09:24:19;;;;;;;0.50;0.50;;;;;;;;;;6214257;23;20210;-84
2023/12/12 09:26:49;;;;;;;2.43;2.20;;;;;;;;;;6214700;23;20172;-84
2023/12/12 09:29:20;;;;;;;2.20;2.10;;;;;;;;;;6214985;23;20169;-83
2023/12/12 09:31:50;;;;;;;3.87;3.50;;;;;;;;;;6215025;23;20196;-84
2023/12/12 09:34:30;;;;;;;1.23;1.17;;;;;;;;;;6215101;23;20177;-84
2023/12/12 09:37:00;;;;;;;0.60;0.60;;;;;;;;;;6215704;23;20169;-83
2023/12/12 09:39:30;;;;;;;3.60;2.17;;;;;;;;;;6215559;23;20180;-84
2023/12/12 09:42:01;;;;;;;6.00;5.00;;;;;;;;;;6215005;23;20263;-83
2023/12/12 09:44:32;;;;;;;5.20;3.57;;;;;;;;;;6214791;23;20182;-83
2023/12/12 09:47:03;;;;;;;1.60;1.27;;;;;;;;;;6215789;23;20180;-83
2023/12/12 09:49:39;;;;;;;2.00;1.83;;;;;;;;;;6214684;23;20182;-83
2023/12/12 09:52:08;;;;;;;27.43;14.17;;;;;;;;;;6215093;23;20199;-86
2023/12/12 09:54:38;;;;;;;15.30;8.07;;;;;;;;;;6213826;23;20175;-83
2023/12/12 09:57:16;;;;;;;3.70;3.37;;;;;;;;;;6213525;23;20179;-85
2023/12/12 09:59:45;;;;;;;17.43;11.70;;;;;;;;;;6214288;23;20243;-85
2023/12/12 10:02:17;;;;;;;29.33;14.63;;;;;;;;;;6214402;23;20215;-84
2023/12/12 10:04:54;;;;;;;15.77;6.93;;;;;;;;;;6213681;23;20184;-84
2023/12/12 10:07:24;;;;;;;2.50;2.40;;;;;;;;;;6213968;23;20254;-84
2023/12/12 10:09:52;;;;;;;10.30;5.73;;;;;;;;;;6214876;23;20172;-84
2023/12/12 10:12:24;;;;;;;1.37;1.37;;;;;;;;;;6215021;23;20169;-84
2023/12/12 10:14:55;;;;;;;18.13;5.30;;;;;;;;;;6214861;23;20259;-84
2023/12/12 10:17:25;;;;;;;7.73;4.30;;;;;;;;;;6212988;23;20483;-84
2023/12/12 10:20:03;;;;;;;12.30;8.33;;;;;;;;;;6213693;23;20184;-84
2023/12/12 10:22:32;;;;;;;6.60;4.63;;;;;;;;;;6211272;23;20215;-84
2023/12/12 10:25:11;;;;;;;10.50;5.27;;;;;;;;;;6214188;23;20264;-85
2023/12/12 10:27:49;;;;;;;9.13;4.87;;;;;;;;;;6213779;23;20196;-84
2023/12/12 10:30:22;;;;;;;6.50;5.00;;;;;;;;;;6214310;23;20204;-84
2023/12/12 10:32:53;;;;;;;6.17;4.47;;;;;;;;;;6214756;23;20198;-85
2023/12/12 10:35:24;;;;;;;8.37;5.17;;;;;;;;;;6214317;23;20212;-84
2023/12/12 10:37:53;;;;;;;2.83;2.63;;;;;;;;;;6214763;23;20222;-84
2023/12/12 10:40:25;;;;;;;9.67;5.43;;;;;;;;;;6214757;23;20184;-85
2023/12/12 10:42:58;;;;;;;9.87;5.17;;;;;;;;;;6214273;23;20192;-84
2023/12/12 10:45:28;;;;;;;7.80;3.93;;;;;;;;;;6214730;23;20172;-84
2023/12/12 10:47:59;;;;;;;5.57;3.77;;;;;;;;;;6214730;23;20211;-85
2023/12/12 10:50:35;;;;;;;4.87;4.30;;;;;;;;;;6214723;23;20187;-84
2023/12/12 10:53:04;;;;;;;8.73;6.37;;;;;;;;;;6213827;23;20174;-84
2023/12/12 10:55:34;;;;;;;20.53;9.83;;;;;;;;;;6214351;23;20172;-85
2023/12/12 10:58:04;;;;;;;18.80;7.47;;;;;;;;;;6214115;23;20176;-85
2023/12/12 11:00:32;;;;;;;4.00;3.63;;;;;;;;;;6213865;23;20178;-83
2023/12/12 11:03:03;;;;;;;8.60;6.30;;;;;;;;;;6213910;23;20202;-84
2023/12/12 11:05:43;;;;;;;0.87;0.87;;;;;;;;;;6214092;23;20204;-85
2023/12/12 11:08:12;;;;;;;22.13;9.73;;;;;;;;;;6214069;23;20204;-83
2023/12/12 11:10:41;;;;;;;16.00;7.13;;;;;;;;;;6213754;23;20285;-84
2023/12/12 11:13:09;;;;;;;13.90;9.97;;;;;;;;;;6214261;23;20178;-91
2023/12/12 11:15:40;;;;;;;14.23;8.90;;;;;;;;;;6214927;23;20193;-91
2023/12/12 11:18:11;;;;;;;20.43;11.53;;;;;;;;;;6213219;23;20205;-88
2023/12/12 11:20:41;;;;;;;4.73;3.40;;;;;;;;;;6214991;23;20180;-90
2023/12/12 11:23:33;;;;;;;12.90;6.43;;;;;;;;;;6213109;23;20223;-89
2023/12/12 11:26:02;;;;;;;11.67;7.37;;;;;;;;;;6214825;23;20185;-84
2023/12/12 11:28:35;;;;;;;11.47;7.33;;;;;;;;;;6214674;23;20251;-84
2023/12/12 11:31:04;;;;;;;9.17;4.83;;;;;;;;;;6213943;23;20217;-84
2023/12/12 11:33:36;;;;;;;22.47;6.67;;;;;;;;;;6213885;23;20166;-83
2023/12/12 11:36:07;;;;;;;2.83;2.10;;;;;;;;;;6214408;23;20191;-89
2023/12/12 11:38:35;;;;;;;15.40;6.57;;;;;;;;;;6214072;23;20171;-90
2023/12/12 11:41:10;;;;;;;17.67;10.67;;;;;;;;;;6214805;23;20177;-89
2023/12/12 11:43:40;;;;;;;8.37;5.40;;;;;;;;;;6213846;23;20190;-90
2023/12/12 11:46:17;;;;;;;13.77;8.03;;;;;;;;;;6214835;23;20185;-89
2023/12/12 11:48:47;;;;;;;4.70;4.27;;;;;;;;;;6213482;23;20208;-82
2023/12/12 11:51:51;;;;;;;25.33;12.73;;;;;;;;;;6213592;23;20235;-84
2023/12/12 11:54:22;;;;;;;16.93;9.20;;;;;;;;;;6121374;23;20202;-84
2023/12/12 11:56:56;;;;;;;18.87;11.20;;;;;;;;;;6119855;23;20214;-84
2023/12/12 11:59:25;;;;;;;17.63;9.80;;;;;;;;;;6169791;23;20184;-84
2023/12/12 12:01:54;;;;;;;16.93;6.70;;;;;;;;;;6214007;23;20169;-84
2023/12/12 12:04:23;;;;;;;24.53;10.73;;;;;;;;;;6215036;23;20242;-85
2023/12/12 12:06:53;;;;;;;12.57;8.57;;;;;;;;;;6213756;23;20184;-84
2023/12/12 12:09:23;;;;;;;21.07;12.70;;;;;;;;;;6213000;23;20174;-85
2023/12/12 12:11:52;;;;;;;12.63;7.13;;;;;;;;;;6213844;23;20181;-84
2023/12/12 12:14:24;;;;;;;22.63;13.43;;;;;;;;;;6213849;23;20177;-85
2023/12/12 12:16:55;;;;;;;18.63;8.97;;;;;;;;;;6213943;23;20180;-85
2023/12/12 12:19:30;;;;;;;25.50;9.70;;;;;;;;;;6213252;23;20176;-84
2023/12/12 12:22:03;;;;;;;16.90;8.80;;;;;;;;;;6213318;23;20254;-84
2023/12/12 12:24:34;;;;;;;28.40;12.83;;;;;;;;;;6213623;23;20211;-85
2023/12/12 12:27:06;;;;;;;15.33;8.23;;;;;;;;;;6215510;23;20172;-85
2023/12/12 12:29:35;;;;;;;25.73;14.43;;;;;;;;;;6214752;23;20284;-85
2023/12/12 12:32:13;;;;;;;19.37;12.27;;;;;;;;;;6215312;23;20173;-84
2023/12/12 12:34:45;;;;;;;24.97;13.90;;;;;;;;;;6215364;23;20184;-85
2023/12/12 12:37:29;;;;;;;19.43;12.20;;;;;;;;;;6213783;23;20206;-85
2023/12/12 12:39:59;;;;;;;20.70;11.17;;;;;;;;;;6215513;23;20199;-85
2023/12/12 12:42:34;;;;;;;25.20;15.67;;;;;;;;;;6215161;23;20224;-84
2023/12/12 12:45:04;;;;;;;25.00;12.97;;;;;;;;;;6216038;23;20224;-83
2023/12/12 12:47:35;;;;;;;23.60;13.20;;;;;;;;;;6213006;23;20265;-84
2023/12/12 12:50:05;;;;;;;14.23;9.37;;;;;;;;;;6213155;23;20170;-84
2023/12/12 12:52:36;;;;;;;11.50;8.37;;;;;;;;;;6214787;23;20177;-83
2023/12/12 12:55:08;;;;;;;22.90;10.50;;;;;;;;;;6214715;23;20246;-84
2023/12/12 12:57:39;;;;;;;21.27;12.43;;;;;;;;;;6214192;23;20177;-84
2023/12/12 13:00:12;;;;;;;26.47;15.93;;;;;;;;;;6212938;23;20178;-84
2023/12/12 13:02:40;;;;;;;10.93;7.43;;;;;;;;;;6213750;23;20495;-85
2023/12/12 13:05:09;;;;;;;16.53;10.50;;;;;;;;;;6215080;23;20185;-85
2023/12/12 13:07:38;;;;;;;25.50;12.80;;;;;;;;;;6214479;23;20179;-85
2023/12/12 13:10:10;;;;;;;12.43;9.03;;;;;;;;;;6215333;23;20178;-84
2023/12/12 13:12:44;;;;;;;20.90;12.03;;;;;;;;;;6214975;23;20166;-84
2023/12/12 13:15:12;;;;;;;19.00;14.27;;;;;;;;;;6214993;23;20177;-84
2023/12/12 13:17:41;;;;;;;12.60;9.17;;;;;;;;;;6213952;23;20174;-85
2023/12/12 13:20:11;;;;;;;8.73;5.23;;;;;;;;;;6215182;23;20177;-85
2023/12/12 13:22:41;;;;;;;28.43;12.90;;;;;;;;;;6214371;23;20266;-85
2023/12/12 13:25:15;;;;;;;12.17;7.33;;;;;;;;;;6214067;23;20201;-84
2023/12/12 13:27:43;;;;;;;24.77;12.97;;;;;;;;;;6214135;23;20259;-85
2023/12/12 13:30:33;;;;;;;22.40;12.97;;;;;;;;;;6214664;23;20247;-85
2023/12/12 13:33:09;;;;;;;19.80;12.27;;;;;;;;;;6100497;23;20177;-85
2023/12/12 13:35:38;;;;;;;23.73;12.37;;;;;;;;;;6214710;23;20224;-85
2023/12/12 13:38:07;;;;;;;20.17;12.60;;;;;;;;;;6213494;23;20185;-85
2023/12/12 13:40:43;;;;;;;16.70;10.80;;;;;;;;;;6214814;23;20252;-84
2023/12/12 13:43:12;;;;;;;24.90;12.83;;;;;;;;;;6213916;23;20177;-85
2023/12/12 13:45:41;;;;;;;30.57;15.40;;;;;;;;;;6214460;23;20236;-85
2023/12/12 13:48:09;;;;;;;17.03;10.10;;;;;;;;;;6214081;23;20183;-85
2023/12/12 13:50:42;;;;;;;27.67;18.47;;;;;;;;;;6214807;23;20193;-86
2023/12/12 13:53:12;;;;;;;24.70;15.03;;;;;;;;;;6213698;23;20175;-83
2023/12/12 13:55:42;;;;;;;23.63;14.50;;;;;;;;;;6214275;23;20170;-82
2023/12/12 13:58:11;;;;;;;29.53;20.47;;;;;;;;;;6213149;23;20247;-82
2023/12/12 14:00:40;;;;;;;32.57;18.30;;;;;;;;;;6213834;23;20231;-83
2023/12/12 14:03:09;;;;;;;25.40;12.87;;;;;;;;;;6212809;23;20210;-82
2023/12/12 14:05:38;;;;;;;27.40;16.60;;;;;;;;;;6213940;23;20191;-82
2023/12/12 14:08:07;;;;;;;19.40;13.10;;;;;;;;;;6215958;23;20176;-85
2023/12/12 14:10:40;;;;;;;33.10;20.13;;;;;;;;;;6215530;23;20167;-83
2023/12/12 14:13:13;;;;;;;19.43;12.37;;;;;;;;;;6215757;23;20177;-83
2023/12/12 14:15:44;;;;;;;10.57;4.17;;;;;;;;;;6216077;23;20430;-84
2023/12/12 14:18:14;;;;;;;6.93;3.90;;;;;;;;;;6214873;23;20177;-84
2023/12/12 14:20:43;;;;;;;21.80;12.20;;;;;;;;;;6216382;23;20264;-84
2023/12/12 14:23:12;;;;;;;26.13;14.17;;;;;;;;;;6215705;23;20197;-83
2023/12/12 14:25:45;;;;;;;26.70;18.53;;;;;;;;;;6214619;23;20240;-84
2023/12/12 14:28:17;;;;;;;18.20;13.00;;;;;;;;;;6212818;23;20205;-84
2023/12/12 14:30:46;;;;;;;20.37;17.10;;;;;;;;;;6212822;23;20216;-84
2023/12/12 14:33:24;;;;;;;18.90;14.47;;;;;;;;;;6213321;23;20172;-84
2023/12/12 14:35:54;;;;;;;22.70;12.27;;;;;;;;;;6213573;23;20183;-84
2023/12/12 14:38:22;;;;;;;20.20;13.53;;;;;;;;;;6212878;23;20247;-84
2023/12/12 14:40:52;;;;;;;25.30;15.37;;;;;;;;;;6212725;23;20172;-84
2023/12/12 14:43:25;;;;;;;22.30;13.73;;;;;;;;;;6213488;23;20171;-84
2023/12/12 14:45:57;;;;;;;19.10;12.10;;;;;;;;;;6213141;23;20281;-85
2023/12/12 14:48:26;;;;;;;14.90;11.47;;;;;;;;;;6213528;23;20243;-85
2023/12/12 14:50:55;;;;;;;22.80;16.97;;;;;;;;;;6213952;23;20180;-85
2023/12/12 14:53:23;;;;;;;24.73;15.20;;;;;;;;;;6213914;23;20176;-85
2023/12/12 14:55:53;;;;;;;19.27;12.70;;;;;;;;;;6213162;23;20168;-86
2023/12/12 14:58:23;;;;;;;27.57;20.27;;;;;;;;;;6213058;23;20256;-84
2023/12/12 15:00:54;;;;;;;24.73;15.20;;;;;;;;;;6212790;23;20255;-85